sensor_id;sensor_type;location;lat;lon;timestamp;temperature;humidity
76168;DHT22;64927;48.214;16.378;2023-05-07T00:00:26;17.20;67.60
76168;DHT22;64927;48.214;16.378;2023-05-07T00:02:52;17.30;67.10
76168;DHT22;64927;48.214;16.378;2023-05-07T00:05:18;17.20;67.30
76168;DHT22;64927;48.214;16.378;2023-05-07T00:07:43;17.10;67.70
76168;DHT22;64927;48.214;16.378;2023-05-07T00:10:11;17.00;67.90
76168;DHT22;64927;48.214;16.378;2023-05-07T00:12:38;16.80;68.20
76168;DHT22;64927;48.214;16.378;2023-05-07T00:15:05;16.80;68.30
76168;DHT22;64927;48.214;16.378;2023-05-07T00:17:33;16.80;68.30
76168;DHT22;64927;48.214;16.378;2023-05-07T00:19:59;16.70;67.90
76168;DHT22;64927;48.214;16.378;2023-05-07T00:22:24;16.60;68.60
76168;DHT22;64927;48.214;16.378;2023-05-07T00:24:50;16.50;68.90
76168;DHT22;64927;48.214;16.378;2023-05-07T00:27:17;16.40;69.70
76168;DHT22;64927;48.214;16.378;2023-05-07T00:29:43;16.40;69.60
76168;DHT22;64927;48.214;16.378;2023-05-07T00:32:09;16.40;69.80
76168;DHT22;64927;48.214;16.378;2023-05-07T00:34:34;16.30;69.70
76168;DHT22;64927;48.214;16.378;2023-05-07T00:37:02;16.50;69.70
76168;DHT22;64927;48.214;16.378;2023-05-07T00:39:30;16.50;69.20
76168;DHT22;64927;48.214;16.378;2023-05-07T00:41:56;16.50;69.80
76168;DHT22;64927;48.214;16.378;2023-05-07T00:44:22;16.50;69.00
76168;DHT22;64927;48.214;16.378;2023-05-07T00:46:48;16.50;68.80
76168;DHT22;64927;48.214;16.378;2023-05-07T00:49:15;16.50;68.70
76168;DHT22;64927;48.214;16.378;2023-05-07T00:51:44;16.60;68.50
76168;DHT22;64927;48.214;16.378;2023-05-07T00:54:10;16.50;68.40
76168;DHT22;64927;48.214;16.378;2023-05-07T00:56:36;16.50;68.90
76168;DHT22;64927;48.214;16.378;2023-05-07T00:59:03;16.40;69.10
76168;DHT22;64927;48.214;16.378;2023-05-07T01:01:29;16.40;69.00
76168;DHT22;64927;48.214;16.378;2023-05-07T01:03:55;16.40;68.80
76168;DHT22;64927;48.214;16.378;2023-05-07T01:06:23;16.40;68.80
76168;DHT22;64927;48.214;16.378;2023-05-07T01:08:51;16.40;68.80
76168;DHT22;64927;48.214;16.378;2023-05-07T01:11:18;16.40;68.70
76168;DHT22;64927;48.214;16.378;2023-05-07T01:13:46;16.40;68.70
76168;DHT22;64927;48.214;16.378;2023-05-07T01:16:12;16.40;69.20
76168;DHT22;64927;48.214;16.378;2023-05-07T01:18:38;16.40;69.10
76168;DHT22;64927;48.214;16.378;2023-05-07T01:21:07;16.40;68.90
76168;DHT22;64927;48.214;16.378;2023-05-07T01:23:36;16.40;69.00
76168;DHT22;64927;48.214;16.378;2023-05-07T01:26:02;16.50;68.90
76168;DHT22;64927;48.214;16.378;2023-05-07T01:28:30;16.40;69.00
76168;DHT22;64927;48.214;16.378;2023-05-07T01:31:00;16.30;69.60
76168;DHT22;64927;48.214;16.378;2023-05-07T01:33:29;16.40;69.20
76168;DHT22;64927;48.214;16.378;2023-05-07T01:35:56;16.50;69.10
76168;DHT22;64927;48.214;16.378;2023-05-07T01:38:23;16.50;69.20
76168;DHT22;64927;48.214;16.378;2023-05-07T01:40:49;16.50;69.20
76168;DHT22;64927;48.214;16.378;2023-05-07T01:43:15;16.40;69.20
76168;DHT22;64927;48.214;16.378;2023-05-07T01:45:44;16.50;70.00
76168;DHT22;64927;48.214;16.378;2023-05-07T01:48:11;16.50;68.70
76168;DHT22;64927;48.214;16.378;2023-05-07T01:50:38;16.50;68.40
76168;DHT22;64927;48.214;16.378;2023-05-07T01:53:10;16.50;68.80
76168;DHT22;64927;48.214;16.378;2023-05-07T01:55:35;16.50;68.70
76168;DHT22;64927;48.214;16.378;2023-05-07T01:58:02;16.40;68.90
76168;DHT22;64927;48.214;16.378;2023-05-07T02:00:28;16.40;69.20
76168;DHT22;64927;48.214;16.378;2023-05-07T02:02:54;16.40;69.20
76168;DHT22;64927;48.214;16.378;2023-05-07T02:05:20;16.30;69.20
76168;DHT22;64927;48.214;16.378;2023-05-07T02:07:48;16.30;69.00
76168;DHT22;64927;48.214;16.378;2023-05-07T02:10:13;16.30;69.00
76168;DHT22;64927;48.214;16.378;2023-05-07T02:12:39;16.40;68.50
76168;DHT22;64927;48.214;16.378;2023-05-07T02:15:05;16.30;68.50
76168;DHT22;64927;48.214;16.378;2023-05-07T02:17:31;16.20;68.60
76168;DHT22;64927;48.214;16.378;2023-05-07T02:20:00;16.20;69.30
76168;DHT22;64927;48.214;16.378;2023-05-07T02:22:26;16.10;69.20
76168;DHT22;64927;48.214;16.378;2023-05-07T02:24:52;16.20;69.00
76168;DHT22;64927;48.214;16.378;2023-05-07T02:27:17;16.10;69.10
76168;DHT22;64927;48.214;16.378;2023-05-07T02:29:43;16.10;69.10
76168;DHT22;64927;48.214;16.378;2023-05-07T02:32:10;16.10;69.00
76168;DHT22;64927;48.214;16.378;2023-05-07T02:34:36;16.10;68.80
76168;DHT22;64927;48.214;16.378;2023-05-07T02:37:02;16.10;68.90
76168;DHT22;64927;48.214;16.378;2023-05-07T02:39:27;16.10;68.60
76168;DHT22;64927;48.214;16.378;2023-05-07T02:41:53;16.20;68.50
76168;DHT22;64927;48.214;16.378;2023-05-07T02:44:18;16.20;68.30
76168;DHT22;64927;48.214;16.378;2023-05-07T02:46:44;16.20;68.50
76168;DHT22;64927;48.214;16.378;2023-05-07T02:49:12;16.00;68.60
76168;DHT22;64927;48.214;16.378;2023-05-07T02:51:38;16.00;68.60
76168;DHT22;64927;48.214;16.378;2023-05-07T02:54:03;16.10;68.50
76168;DHT22;64927;48.214;16.378;2023-05-07T02:56:29;16.00;68.80
76168;DHT22;64927;48.214;16.378;2023-05-07T02:58:55;16.00;69.00
76168;DHT22;64927;48.214;16.378;2023-05-07T03:01:23;15.90;68.90
76168;DHT22;64927;48.214;16.378;2023-05-07T03:03:49;16.00;68.80
76168;DHT22;64927;48.214;16.378;2023-05-07T03:06:15;15.90;69.00
76168;DHT22;64927;48.214;16.378;2023-05-07T03:08:43;15.80;69.40
76168;DHT22;64927;48.214;16.378;2023-05-07T03:11:11;15.80;69.40
76168;DHT22;64927;48.214;16.378;2023-05-07T03:13:39;15.80;69.60
76168;DHT22;64927;48.214;16.378;2023-05-07T03:16:05;15.80;69.40
76168;DHT22;64927;48.214;16.378;2023-05-07T03:18:31;15.80;69.40
76168;DHT22;64927;48.214;16.378;2023-05-07T03:20:56;15.70;70.10
76168;DHT22;64927;48.214;16.378;2023-05-07T03:23:22;15.70;70.30
76168;DHT22;64927;48.214;16.378;2023-05-07T03:25:48;15.70;70.30
76168;DHT22;64927;48.214;16.378;2023-05-07T03:28:14;15.60;70.30
76168;DHT22;64927;48.214;16.378;2023-05-07T03:30:42;15.60;70.70
76168;DHT22;64927;48.214;16.378;2023-05-07T03:33:08;15.60;70.70
76168;DHT22;64927;48.214;16.378;2023-05-07T03:35:33;15.60;70.20
76168;DHT22;64927;48.214;16.378;2023-05-07T03:38:01;15.60;70.80
76168;DHT22;64927;48.214;16.378;2023-05-07T03:40:27;15.60;70.90
76168;DHT22;64927;48.214;16.378;2023-05-07T03:42:52;15.60;70.40
76168;DHT22;64927;48.214;16.378;2023-05-07T03:45:18;15.60;70.70
76168;DHT22;64927;48.214;16.378;2023-05-07T03:47:44;15.60;70.70
76168;DHT22;64927;48.214;16.378;2023-05-07T03:50:09;15.50;71.00
76168;DHT22;64927;48.214;16.378;2023-05-07T03:52:35;15.50;71.30
76168;DHT22;64927;48.214;16.378;2023-05-07T03:55:01;15.50;71.30
76168;DHT22;64927;48.214;16.378;2023-05-07T03:57:27;15.50;71.20
76168;DHT22;64927;48.214;16.378;2023-05-07T03:59:52;15.50;71.20
76168;DHT22;64927;48.214;16.378;2023-05-07T04:02:18;15.50;71.10
76168;DHT22;64927;48.214;16.378;2023-05-07T04:04:43;15.50;71.40
76168;DHT22;64927;48.214;16.378;2023-05-07T04:07:09;15.50;71.40
76168;DHT22;64927;48.214;16.378;2023-05-07T04:09:35;15.50;71.50
76168;DHT22;64927;48.214;16.378;2023-05-07T04:12:03;15.40;71.70
76168;DHT22;64927;48.214;16.378;2023-05-07T04:14:29;15.40;72.00
76168;DHT22;64927;48.214;16.378;2023-05-07T04:16:57;15.40;72.10
76168;DHT22;64927;48.214;16.378;2023-05-07T04:19:26;15.40;72.20
76168;DHT22;64927;48.214;16.378;2023-05-07T04:21:51;15.50;71.70
76168;DHT22;64927;48.214;16.378;2023-05-07T04:24:17;15.70;71.50
76168;DHT22;64927;48.214;16.378;2023-05-07T04:26:45;15.80;70.90
76168;DHT22;64927;48.214;16.378;2023-05-07T04:29:11;15.90;70.40
76168;DHT22;64927;48.214;16.378;2023-05-07T04:31:37;16.10;70.00
76168;DHT22;64927;48.214;16.378;2023-05-07T04:34:02;16.10;70.20
76168;DHT22;64927;48.214;16.378;2023-05-07T04:36:28;16.10;69.30
76168;DHT22;64927;48.214;16.378;2023-05-07T04:38:54;16.20;69.30
76168;DHT22;64927;48.214;16.378;2023-05-07T04:41:20;16.30;68.70
76168;DHT22;64927;48.214;16.378;2023-05-07T04:43:48;16.20;69.10
76168;DHT22;64927;48.214;16.378;2023-05-07T04:46:13;16.40;68.60
76168;DHT22;64927;48.214;16.378;2023-05-07T04:48:39;16.40;68.50
76168;DHT22;64927;48.214;16.378;2023-05-07T04:51:05;16.40;68.70
76168;DHT22;64927;48.214;16.378;2023-05-07T04:53:32;16.70;67.90
76168;DHT22;64927;48.214;16.378;2023-05-07T04:55:58;16.80;67.00
76168;DHT22;64927;48.214;16.378;2023-05-07T04:58:23;16.60;67.70
76168;DHT22;64927;48.214;16.378;2023-05-07T05:00:49;16.60;67.40
76168;DHT22;64927;48.214;16.378;2023-05-07T05:03:15;16.50;68.00
76168;DHT22;64927;48.214;16.378;2023-05-07T05:05:40;16.50;68.20
76168;DHT22;64927;48.214;16.378;2023-05-07T05:08:06;16.40;68.20
76168;DHT22;64927;48.214;16.378;2023-05-07T05:10:32;16.50;68.20
76168;DHT22;64927;48.214;16.378;2023-05-07T05:12:57;16.40;68.40
76168;DHT22;64927;48.214;16.378;2023-05-07T05:15:25;16.40;68.80
76168;DHT22;64927;48.214;16.378;2023-05-07T05:17:51;16.40;68.70
76168;DHT22;64927;48.214;16.378;2023-05-07T05:20:19;16.50;68.30
76168;DHT22;64927;48.214;16.378;2023-05-07T05:22:44;16.40;67.90
76168;DHT22;64927;48.214;16.378;2023-05-07T05:25:10;16.30;68.00
76168;DHT22;64927;48.214;16.378;2023-05-07T05:27:36;16.30;68.10
76168;DHT22;64927;48.214;16.378;2023-05-07T05:30:02;16.40;67.60
76168;DHT22;64927;48.214;16.378;2023-05-07T05:32:28;16.60;67.20
76168;DHT22;64927;48.214;16.378;2023-05-07T05:34:54;16.60;66.50
76168;DHT22;64927;48.214;16.378;2023-05-07T05:37:21;16.60;67.10
76168;DHT22;64927;48.214;16.378;2023-05-07T05:39:47;16.60;66.60
76168;DHT22;64927;48.214;16.378;2023-05-07T05:42:15;16.70;67.00
76168;DHT22;64927;48.214;16.378;2023-05-07T05:44:43;17.00;66.20
76168;DHT22;64927;48.214;16.378;2023-05-07T05:47:11;16.80;66.10
76168;DHT22;64927;48.214;16.378;2023-05-07T05:49:39;17.00;65.70
76168;DHT22;64927;48.214;16.378;2023-05-07T05:52:08;17.10;65.00
76168;DHT22;64927;48.214;16.378;2023-05-07T05:54:34;17.50;64.10
76168;DHT22;64927;48.214;16.378;2023-05-07T05:57:00;17.90;63.00
76168;DHT22;64927;48.214;16.378;2023-05-07T05:59:25;18.10;62.40
76168;DHT22;64927;48.214;16.378;2023-05-07T06:01:51;18.00;61.30
76168;DHT22;64927;48.214;16.378;2023-05-07T06:04:19;18.00;60.40
76168;DHT22;64927;48.214;16.378;2023-05-07T06:06:45;17.40;62.00
76168;DHT22;64927;48.214;16.378;2023-05-07T06:09:10;17.20;62.70
76168;DHT22;64927;48.214;16.378;2023-05-07T06:11:36;17.10;63.10
76168;DHT22;64927;48.214;16.378;2023-05-07T06:14:02;17.20;63.20
76168;DHT22;64927;48.214;16.378;2023-05-07T06:16:30;17.40;62.80
76168;DHT22;64927;48.214;16.378;2023-05-07T06:18:55;17.80;61.80
76168;DHT22;64927;48.214;16.378;2023-05-07T06:21:21;18.30;61.00
76168;DHT22;64927;48.214;16.378;2023-05-07T06:23:49;18.10;60.90
76168;DHT22;64927;48.214;16.378;2023-05-07T06:26:17;17.90;60.80
76168;DHT22;64927;48.214;16.378;2023-05-07T06:28:42;18.00;61.00
76168;DHT22;64927;48.214;16.378;2023-05-07T06:31:20;18.00;60.40
76168;DHT22;64927;48.214;16.378;2023-05-07T06:33:46;17.90;60.60
76168;DHT22;64927;48.214;16.378;2023-05-07T06:36:12;17.90;60.80
76168;DHT22;64927;48.214;16.378;2023-05-07T06:38:38;17.90;60.50
76168;DHT22;64927;48.214;16.378;2023-05-07T06:41:05;17.60;61.10
76168;DHT22;64927;48.214;16.378;2023-05-07T06:43:33;17.90;61.20
76168;DHT22;64927;48.214;16.378;2023-05-07T06:46:01;18.20;60.30
76168;DHT22;64927;48.214;16.378;2023-05-07T06:48:27;18.90;60.30
76168;DHT22;64927;48.214;16.378;2023-05-07T06:50:55;19.40;56.50
76168;DHT22;64927;48.214;16.378;2023-05-07T06:53:23;19.30;56.00
76168;DHT22;64927;48.214;16.378;2023-05-07T06:55:49;19.60;55.80
76168;DHT22;64927;48.214;16.378;2023-05-07T06:58:16;19.60;55.80
76168;DHT22;64927;48.214;16.378;2023-05-07T07:00:42;19.30;55.40
76168;DHT22;64927;48.214;16.378;2023-05-07T07:03:07;18.90;57.00
76168;DHT22;64927;48.214;16.378;2023-05-07T07:05:33;19.20;57.20
76168;DHT22;64927;48.214;16.378;2023-05-07T07:07:59;19.10;57.20
76168;DHT22;64927;48.214;16.378;2023-05-07T07:10:24;19.00;57.00
76168;DHT22;64927;48.214;16.378;2023-05-07T07:12:50;18.80;57.10
76168;DHT22;64927;48.214;16.378;2023-05-07T07:15:17;18.60;58.10
76168;DHT22;64927;48.214;16.378;2023-05-07T07:17:43;18.80;57.50
76168;DHT22;64927;48.214;16.378;2023-05-07T07:20:13;18.90;57.50
76168;DHT22;64927;48.214;16.378;2023-05-07T07:22:39;18.60;57.10
76168;DHT22;64927;48.214;16.378;2023-05-07T07:25:05;18.50;58.30
76168;DHT22;64927;48.214;16.378;2023-05-07T07:27:31;18.70;57.50
76168;DHT22;64927;48.214;16.378;2023-05-07T07:29:56;18.60;57.60
76168;DHT22;64927;48.214;16.378;2023-05-07T07:32:24;18.60;57.70
76168;DHT22;64927;48.214;16.378;2023-05-07T07:34:50;18.30;57.40
76168;DHT22;64927;48.214;16.378;2023-05-07T07:37:15;18.20;57.70
76168;DHT22;64927;48.214;16.378;2023-05-07T07:39:41;17.80;58.80
76168;DHT22;64927;48.214;16.378;2023-05-07T07:42:06;17.70;59.40
76168;DHT22;64927;48.214;16.378;2023-05-07T07:44:32;17.70;59.80
76168;DHT22;64927;48.214;16.378;2023-05-07T07:46:57;17.90;60.30
76168;DHT22;64927;48.214;16.378;2023-05-07T07:49:23;17.80;59.30
76168;DHT22;64927;48.214;16.378;2023-05-07T07:51:49;17.80;60.50
76168;DHT22;64927;48.214;16.378;2023-05-07T07:54:14;17.90;59.40
76168;DHT22;64927;48.214;16.378;2023-05-07T07:56:40;18.10;59.00
76168;DHT22;64927;48.214;16.378;2023-05-07T07:59:06;18.10;58.70
76168;DHT22;64927;48.214;16.378;2023-05-07T08:01:31;18.30;58.20
76168;DHT22;64927;48.214;16.378;2023-05-07T08:03:59;18.10;58.30
76168;DHT22;64927;48.214;16.378;2023-05-07T08:06:25;17.80;59.30
76168;DHT22;64927;48.214;16.378;2023-05-07T08:08:53;18.00;59.30
76168;DHT22;64927;48.214;16.378;2023-05-07T08:11:19;18.40;58.30
76168;DHT22;64927;48.214;16.378;2023-05-07T08:13:46;18.00;58.90
76168;DHT22;64927;48.214;16.378;2023-05-07T08:16:12;18.00;59.50
76168;DHT22;64927;48.214;16.378;2023-05-07T08:18:37;18.40;58.60
76168;DHT22;64927;48.214;16.378;2023-05-07T08:21:03;18.30;57.70
76168;DHT22;64927;48.214;16.378;2023-05-07T08:23:29;18.30;58.40
76168;DHT22;64927;48.214;16.378;2023-05-07T08:25:55;18.50;56.20
76168;DHT22;64927;48.214;16.378;2023-05-07T08:28:21;19.40;54.80
76168;DHT22;64927;48.214;16.378;2023-05-07T08:30:47;20.10;53.50
76168;DHT22;64927;48.214;16.378;2023-05-07T08:33:15;20.80;50.40
76168;DHT22;64927;48.214;16.378;2023-05-07T08:35:41;20.30;50.60
76168;DHT22;64927;48.214;16.378;2023-05-07T08:38:06;19.90;52.00
76168;DHT22;64927;48.214;16.378;2023-05-07T08:40:38;19.70;52.00
76168;DHT22;64927;48.214;16.378;2023-05-07T08:43:06;19.70;52.60
76168;DHT22;64927;48.214;16.378;2023-05-07T08:45:33;19.50;53.70
76168;DHT22;64927;48.214;16.378;2023-05-07T08:48:09;20.00;52.90
76168;DHT22;64927;48.214;16.378;2023-05-07T08:50:36;20.10;51.20
76168;DHT22;64927;48.214;16.378;2023-05-07T08:53:03;19.90;51.20
76168;DHT22;64927;48.214;16.378;2023-05-07T08:55:29;19.60;51.60
76168;DHT22;64927;48.214;16.378;2023-05-07T08:57:55;19.60;51.00
76168;DHT22;64927;48.214;16.378;2023-05-07T09:00:21;19.30;51.50
76168;DHT22;64927;48.214;16.378;2023-05-07T09:02:47;19.50;51.50
76168;DHT22;64927;48.214;16.378;2023-05-07T09:05:13;19.70;51.50
76168;DHT22;64927;48.214;16.378;2023-05-07T09:07:39;19.80;50.20
76168;DHT22;64927;48.214;16.378;2023-05-07T09:10:05;19.50;51.50
76168;DHT22;64927;48.214;16.378;2023-05-07T09:12:31;19.90;50.50
76168;DHT22;64927;48.214;16.378;2023-05-07T09:14:58;20.30;48.50
76168;DHT22;64927;48.214;16.378;2023-05-07T09:17:26;20.70;48.40
76168;DHT22;64927;48.214;16.378;2023-05-07T09:19:52;21.00;47.40
76168;DHT22;64927;48.214;16.378;2023-05-07T09:22:18;21.40;47.40
76168;DHT22;64927;48.214;16.378;2023-05-07T09:24:51;21.70;45.40
76168;DHT22;64927;48.214;16.378;2023-05-07T09:27:17;21.80;44.70
76168;DHT22;64927;48.214;16.378;2023-05-07T09:29:46;21.70;45.10
76168;DHT22;64927;48.214;16.378;2023-05-07T09:32:12;21.70;44.70
76168;DHT22;64927;48.214;16.378;2023-05-07T09:34:41;21.80;44.10
76168;DHT22;64927;48.214;16.378;2023-05-07T09:37:07;21.80;44.60
76168;DHT22;64927;48.214;16.378;2023-05-07T09:39:44;22.00;44.50
76168;DHT22;64927;48.214;16.378;2023-05-07T09:42:10;22.20;43.70
76168;DHT22;64927;48.214;16.378;2023-05-07T09:44:37;22.20;44.20
76168;DHT22;64927;48.214;16.378;2023-05-07T09:47:06;22.00;44.20
76168;DHT22;64927;48.214;16.378;2023-05-07T09:49:39;21.40;45.00
76168;DHT22;64927;48.214;16.378;2023-05-07T09:52:07;20.50;47.30
76168;DHT22;64927;48.214;16.378;2023-05-07T09:54:35;20.90;48.00
76168;DHT22;64927;48.214;16.378;2023-05-07T09:57:04;21.70;46.10
76168;DHT22;64927;48.214;16.378;2023-05-07T09:59:33;21.90;44.40
76168;DHT22;64927;48.214;16.378;2023-05-07T10:02:00;21.90;45.10
76168;DHT22;64927;48.214;16.378;2023-05-07T10:04:29;21.30;45.20
76168;DHT22;64927;48.214;16.378;2023-05-07T10:06:58;21.20;46.30
76168;DHT22;64927;48.214;16.378;2023-05-07T10:09:25;21.60;46.30
76168;DHT22;64927;48.214;16.378;2023-05-07T10:11:54;21.50;45.60
76168;DHT22;64927;48.214;16.378;2023-05-07T10:14:21;21.90;44.60
76168;DHT22;64927;48.214;16.378;2023-05-07T10:16:47;22.00;45.40
76168;DHT22;64927;48.214;16.378;2023-05-07T10:19:14;22.70;44.50
76168;DHT22;64927;48.214;16.378;2023-05-07T10:21:44;22.80;42.40
76168;DHT22;64927;48.214;16.378;2023-05-07T10:24:26;22.40;43.40
76168;DHT22;64927;48.214;16.378;2023-05-07T10:26:53;21.90;44.40
76168;DHT22;64927;48.214;16.378;2023-05-07T10:32:48;21.80;45.50
76168;DHT22;64927;48.214;16.378;2023-05-07T10:35:26;22.20;44.60
76168;DHT22;64927;48.214;16.378;2023-05-07T10:37:54;21.80;44.80
76168;DHT22;64927;48.214;16.378;2023-05-07T10:40:21;21.50;45.70
76168;DHT22;64927;48.214;16.378;2023-05-07T10:42:58;21.80;45.60
76168;DHT22;64927;48.214;16.378;2023-05-07T10:45:25;21.60;45.70
76168;DHT22;64927;48.214;16.378;2023-05-07T10:48:14;21.80;45.70
76168;DHT22;64927;48.214;16.378;2023-05-07T10:50:44;21.70;45.60
76168;DHT22;64927;48.214;16.378;2023-05-07T11:01:53;22.20;44.40
76168;DHT22;64927;48.214;16.378;2023-05-07T11:04:23;21.90;45.30
76168;DHT22;64927;48.214;16.378;2023-05-07T11:15:10;21.90;45.20
76168;DHT22;64927;48.214;16.378;2023-05-07T11:17:58;21.90;44.50
76168;DHT22;64927;48.214;16.378;2023-05-07T11:26:04;21.90;44.70
76168;DHT22;64927;48.214;16.378;2023-05-07T11:28:37;22.00;44.20
76168;DHT22;64927;48.214;16.378;2023-05-07T11:31:03;22.10;43.70
76168;DHT22;64927;48.214;16.378;2023-05-07T11:33:29;22.10;43.90
76168;DHT22;64927;48.214;16.378;2023-05-07T11:35:56;21.90;45.00
76168;DHT22;64927;48.214;16.378;2023-05-07T11:38:22;21.90;44.10
76168;DHT22;64927;48.214;16.378;2023-05-07T11:40:59;21.80;43.90
76168;DHT22;64927;48.214;16.378;2023-05-07T11:43:30;21.70;44.70
76168;DHT22;64927;48.214;16.378;2023-05-07T11:46:10;21.40;45.50
76168;DHT22;64927;48.214;16.378;2023-05-07T11:48:37;21.20;45.90
76168;DHT22;64927;48.214;16.378;2023-05-07T11:51:05;21.70;44.70
76168;DHT22;64927;48.214;16.378;2023-05-07T11:53:41;21.80;44.40
76168;DHT22;64927;48.214;16.378;2023-05-07T11:56:12;21.80;45.00
76168;DHT22;64927;48.214;16.378;2023-05-07T11:58:39;22.00;44.30
76168;DHT22;64927;48.214;16.378;2023-05-07T12:01:07;22.30;43.50
76168;DHT22;64927;48.214;16.378;2023-05-07T12:03:35;22.00;44.50
76168;DHT22;64927;48.214;16.378;2023-05-07T12:06:02;22.30;43.40
76168;DHT22;64927;48.214;16.378;2023-05-07T12:08:30;21.80;44.10
76168;DHT22;64927;48.214;16.378;2023-05-07T12:10:56;21.80;44.50
76168;DHT22;64927;48.214;16.378;2023-05-07T12:13:26;22.10;43.90
76168;DHT22;64927;48.214;16.378;2023-05-07T12:15:53;22.40;43.50
76168;DHT22;64927;48.214;16.378;2023-05-07T12:18:19;22.30;42.90
76168;DHT22;64927;48.214;16.378;2023-05-07T12:20:46;22.20;43.50
76168;DHT22;64927;48.214;16.378;2023-05-07T12:23:12;22.00;43.70
76168;DHT22;64927;48.214;16.378;2023-05-07T12:25:39;21.90;44.30
76168;DHT22;64927;48.214;16.378;2023-05-07T12:28:13;22.30;43.40
76168;DHT22;64927;48.214;16.378;2023-05-07T12:30:42;22.30;43.20
76168;DHT22;64927;48.214;16.378;2023-05-07T12:33:08;22.40;43.10
76168;DHT22;64927;48.214;16.378;2023-05-07T12:35:41;22.30;43.50
76168;DHT22;64927;48.214;16.378;2023-05-07T12:38:13;22.30;43.50
76168;DHT22;64927;48.214;16.378;2023-05-07T12:40:44;22.20;43.70
76168;DHT22;64927;48.214;16.378;2023-05-07T12:43:17;22.40;43.20
76168;DHT22;64927;48.214;16.378;2023-05-07T12:45:44;22.40;43.30
76168;DHT22;64927;48.214;16.378;2023-05-07T12:48:10;22.40;43.00
76168;DHT22;64927;48.214;16.378;2023-05-07T12:50:36;22.30;43.00
76168;DHT22;64927;48.214;16.378;2023-05-07T12:53:06;22.40;42.20
76168;DHT22;64927;48.214;16.378;2023-05-07T12:55:43;22.50;42.10
76168;DHT22;64927;48.214;16.378;2023-05-07T12:58:33;22.70;41.30
76168;DHT22;64927;48.214;16.378;2023-05-07T13:01:00;22.70;41.10
76168;DHT22;64927;48.214;16.378;2023-05-07T13:03:28;22.60;41.40
76168;DHT22;64927;48.214;16.378;2023-05-07T13:05:55;22.20;41.90
76168;DHT22;64927;48.214;16.378;2023-05-07T13:08:32;21.80;42.80
76168;DHT22;64927;48.214;16.378;2023-05-07T13:10:59;22.00;42.30
76168;DHT22;64927;48.214;16.378;2023-05-07T13:13:31;22.30;41.90
76168;DHT22;64927;48.214;16.378;2023-05-07T13:15:57;22.00;42.40
76168;DHT22;64927;48.214;16.378;2023-05-07T13:18:26;21.80;42.60
76168;DHT22;64927;48.214;16.378;2023-05-07T13:20:52;21.70;42.70
76168;DHT22;64927;48.214;16.378;2023-05-07T13:23:23;22.20;41.90
76168;DHT22;64927;48.214;16.378;2023-05-07T13:25:49;22.40;41.20
76168;DHT22;64927;48.214;16.378;2023-05-07T13:28:16;22.60;41.10
76168;DHT22;64927;48.214;16.378;2023-05-07T13:30:41;22.80;40.50
76168;DHT22;64927;48.214;16.378;2023-05-07T13:33:08;22.70;40.40
76168;DHT22;64927;48.214;16.378;2023-05-07T13:35:34;22.60;40.90
76168;DHT22;64927;48.214;16.378;2023-05-07T13:38:02;22.30;41.10
76168;DHT22;64927;48.214;16.378;2023-05-07T13:40:28;22.30;41.70
76168;DHT22;64927;48.214;16.378;2023-05-07T13:42:54;22.50;40.70
76168;DHT22;64927;48.214;16.378;2023-05-07T13:45:22;22.40;40.60
76168;DHT22;64927;48.214;16.378;2023-05-07T13:47:53;22.30;40.80
76168;DHT22;64927;48.214;16.378;2023-05-07T13:50:18;22.40;40.40
76168;DHT22;64927;48.214;16.378;2023-05-07T13:52:44;22.30;40.70
76168;DHT22;64927;48.214;16.378;2023-05-07T13:55:20;22.20;41.10
76168;DHT22;64927;48.214;16.378;2023-05-07T13:57:53;22.20;41.40
76168;DHT22;64927;48.214;16.378;2023-05-07T14:00:24;21.90;42.00
76168;DHT22;64927;48.214;16.378;2023-05-07T14:02:49;22.20;41.20
76168;DHT22;64927;48.214;16.378;2023-05-07T14:05:15;22.20;41.20
76168;DHT22;64927;48.214;16.378;2023-05-07T14:07:41;22.10;41.60
76168;DHT22;64927;48.214;16.378;2023-05-07T14:10:09;22.00;41.10
76168;DHT22;64927;48.214;16.378;2023-05-07T14:12:36;21.90;41.70
76168;DHT22;64927;48.214;16.378;2023-05-07T14:15:02;21.80;41.90
76168;DHT22;64927;48.214;16.378;2023-05-07T14:17:28;22.10;41.10
76168;DHT22;64927;48.214;16.378;2023-05-07T14:19:54;22.40;40.20
76168;DHT22;64927;48.214;16.378;2023-05-07T14:22:21;22.40;40.10
76168;DHT22;64927;48.214;16.378;2023-05-07T14:24:48;22.30;40.10
76168;DHT22;64927;48.214;16.378;2023-05-07T14:27:16;22.10;40.50
76168;DHT22;64927;48.214;16.378;2023-05-07T14:29:42;22.20;40.60
76168;DHT22;64927;48.214;16.378;2023-05-07T14:32:08;21.90;41.10
76168;DHT22;64927;48.214;16.378;2023-05-07T14:34:34;21.70;41.60
76168;DHT22;64927;48.214;16.378;2023-05-07T14:37:00;21.90;41.40
76168;DHT22;64927;48.214;16.378;2023-05-07T14:39:26;21.70;41.60
76168;DHT22;64927;48.214;16.378;2023-05-07T14:41:54;21.70;41.60
76168;DHT22;64927;48.214;16.378;2023-05-07T14:44:21;21.50;42.10
76168;DHT22;64927;48.214;16.378;2023-05-07T14:46:47;21.50;42.20
76168;DHT22;64927;48.214;16.378;2023-05-07T14:49:14;21.50;42.10
76168;DHT22;64927;48.214;16.378;2023-05-07T14:51:44;21.50;42.20
76168;DHT22;64927;48.214;16.378;2023-05-07T14:54:10;21.60;41.90
76168;DHT22;64927;48.214;16.378;2023-05-07T14:56:36;21.60;42.70
76168;DHT22;64927;48.214;16.378;2023-05-07T14:59:04;21.70;41.80
76168;DHT22;64927;48.214;16.378;2023-05-07T15:01:30;21.70;41.80
76168;DHT22;64927;48.214;16.378;2023-05-07T15:03:55;21.70;41.70
76168;DHT22;64927;48.214;16.378;2023-05-07T15:06:21;21.60;41.80
76168;DHT22;64927;48.214;16.378;2023-05-07T15:08:47;21.50;41.90
76168;DHT22;64927;48.214;16.378;2023-05-07T15:11:18;21.40;42.10
76168;DHT22;64927;48.214;16.378;2023-05-07T15:13:44;21.50;42.20
76168;DHT22;64927;48.214;16.378;2023-05-07T15:16:10;21.30;42.00
76168;DHT22;64927;48.214;16.378;2023-05-07T15:18:35;21.00;42.40
76168;DHT22;64927;48.214;16.378;2023-05-07T15:21:01;20.90;42.80
76168;DHT22;64927;48.214;16.378;2023-05-07T15:23:27;20.70;43.10
76168;DHT22;64927;48.214;16.378;2023-05-07T15:25:53;20.70;43.50
76168;DHT22;64927;48.214;16.378;2023-05-07T15:28:19;20.50;43.50
76168;DHT22;64927;48.214;16.378;2023-05-07T15:30:44;20.50;44.00
76168;DHT22;64927;48.214;16.378;2023-05-07T15:33:10;20.70;43.40
76168;DHT22;64927;48.214;16.378;2023-05-07T15:35:36;20.50;44.60
76168;DHT22;64927;48.214;16.378;2023-05-07T15:38:02;20.40;43.70
76168;DHT22;64927;48.214;16.378;2023-05-07T15:40:28;20.40;43.40